PWSweather.com
Personal Weather Stations
Station Observations
BC052CD
On, Kemptville, ON K0G 1J0

OnKemptville, ON K0G 1J0

Lat: 45.0173179, Lon: -75.6329355

Elevation: 295

Station Type: National Geographic 265NC

http://kerrentweather.ca

High Low Average
Temperature 26.4°F-3.1°C 14.0°F-10.0°C 22.6°F-5.2°C
Dew Point 23.9°F-4.5°C 11.6°F-11.3°C 18.2°F-7.7°C
Winds 2.9 mph 4.7 kmh Calm Calm 1.0 mph NE1.6 kmh NE
Wind Gusts 9.5 mph15.3 kmh -- 4.0 mph6.4 kmh
Humidity 94% 69% 83%
Pressure 30.19 in1022.4 mb 29.95 in1014.2 mb -
Precipitation 0.00 in0.0 mm - -
Hour Temp Dew Point Humidity Winds Wind Gusts Pressure Precip Precip Rate Daily Precip Total
12:00 AM 25.3°F-3.7°C 16.6°F-8.6°C 69% 2.1 mph NE3.4 kmh NE 6.7 mph10.8 kmh 30.02 in1016.6 mb 0.00 in0.0 mm 0.00 in0.0 mm 0.00 in0.0 mm
12:15 AM 25.3°F-3.7°C 16.6°F-8.6°C 69% 1.6 mph NE2.6 kmh NE 5.6 mph9.0 kmh 30.02 in1016.6 mb 0.00 in0.0 mm 0.00 in0.0 mm 0.00 in0.0 mm
12:30 AM 25.2°F-3.8°C 16.5°F-8.6°C 69% 2.4 mph NE3.9 kmh NE 9.5 mph15.3 kmh 30.02 in1016.6 mb 0.00 in0.0 mm 0.00 in0.0 mm 0.00 in0.0 mm
12:45 AM 25.5°F-3.6°C 16.8°F-8.4°C 69% 1.8 mph NE2.9 kmh NE 4.8 mph7.7 kmh 30.02 in1016.6 mb 0.00 in0.0 mm 0.00 in0.0 mm 0.00 in0.0 mm
01:00 AM 25.2°F-3.8°C 16.5°F-8.6°C 69% 1.8 mph NE2.9 kmh NE 3.9 mph6.3 kmh 30.02 in1016.6 mb 0.00 in0.0 mm 0.00 in0.0 mm 0.00 in0.0 mm
01:15 AM 25.0°F-3.9°C 16.3°F-8.7°C 69% 1.8 mph NE2.9 kmh NE 4.8 mph7.7 kmh 30.03 in1016.9 mb 0.00 in0.0 mm 0.00 in0.0 mm 0.00 in0.0 mm
01:30 AM 25.0°F-3.9°C 16.6°F-8.6°C 70% 1.4 mph NE2.3 kmh NE 4.8 mph7.7 kmh 30.04 in1017.3 mb 0.00 in0.0 mm 0.00 in0.0 mm 0.00 in0.0 mm
01:45 AM 24.8°F-4.0°C 16.4°F-8.7°C 70% 1.8 mph NE2.9 kmh NE 5.6 mph9.0 kmh 30.04 in1017.3 mb 0.00 in0.0 mm 0.00 in0.0 mm 0.00 in0.0 mm
02:00 AM 24.8°F-4.0°C 16.4°F-8.7°C 70% 1.4 mph NE2.3 kmh NE 3.9 mph6.3 kmh 30.03 in1016.9 mb 0.00 in0.0 mm 0.00 in0.0 mm 0.00 in0.0 mm
02:15 AM 24.8°F-4.0°C 16.4°F-8.7°C 70% 0.8 mph NE1.3 kmh NE 3.9 mph6.3 kmh 30.03 in1016.9 mb 0.00 in0.0 mm 0.00 in0.0 mm 0.00 in0.0 mm
02:30 AM 24.6°F-4.1°C 16.3°F-8.7°C 70% 0.9 mph NE1.4 kmh NE 2.8 mph4.5 kmh 30.02 in1016.6 mb 0.00 in0.0 mm 0.00 in0.0 mm 0.00 in0.0 mm
02:45 AM 24.4°F-4.2°C 16.1°F-8.8°C 70% 1.8 mph NE2.9 kmh NE 4.8 mph7.7 kmh 30.04 in1017.3 mb 0.00 in0.0 mm 0.00 in0.0 mm 0.00 in0.0 mm
03:00 AM 24.3°F-4.3°C 16.6°F-8.6°C 72% 1.9 mph NE3.1 kmh NE 3.9 mph6.3 kmh 30.03 in1016.9 mb 0.00 in0.0 mm 0.00 in0.0 mm 0.00 in0.0 mm
03:15 AM 24.1°F-4.4°C 16.4°F-8.7°C 72% 1.9 mph NE3.1 kmh NE 4.8 mph7.7 kmh 30.03 in1016.9 mb 0.00 in0.0 mm 0.00 in0.0 mm 0.00 in0.0 mm
03:30 AM 23.9°F-4.5°C 16.2°F-8.8°C 72% 1.5 mph NNE2.4 kmh NNE 5.6 mph9.0 kmh 30.03 in1016.9 mb 0.00 in0.0 mm 0.00 in0.0 mm 0.00 in0.0 mm
03:45 AM 23.9°F-4.5°C 16.2°F-8.8°C 72% 1.6 mph NE2.6 kmh NE 3.9 mph6.3 kmh 30.03 in1016.9 mb 0.00 in0.0 mm 0.00 in0.0 mm 0.00 in0.0 mm
04:00 AM 23.7°F-4.6°C 16.1°F-8.8°C 72% 1.9 mph NE3.1 kmh NE 7.5 mph12.1 kmh 30.02 in1016.6 mb 0.00 in0.0 mm 0.00 in0.0 mm 0.00 in0.0 mm
04:15 AM 23.5°F-4.7°C 16.2°F-8.8°C 73% 1.4 mph NE2.3 kmh NE 4.8 mph7.7 kmh 30.02 in1016.6 mb 0.00 in0.0 mm 0.00 in0.0 mm 0.00 in0.0 mm
04:30 AM 23.4°F-4.8°C 16.0°F-8.9°C 73% 2.1 mph NE3.4 kmh NE 4.8 mph7.7 kmh 30.02 in1016.6 mb 0.00 in0.0 mm 0.00 in0.0 mm 0.00 in0.0 mm
04:45 AM 23.4°F-4.8°C 16.6°F-8.6°C 75% 2.1 mph NE3.4 kmh NE 4.8 mph7.7 kmh 30.02 in1016.6 mb 0.00 in0.0 mm 0.00 in0.0 mm 0.00 in0.0 mm
05:00 AM 23.2°F-4.9°C 16.5°F-8.6°C 75% 2.6 mph NE4.2 kmh NE 6.7 mph10.8 kmh 30.02 in1016.6 mb 0.00 in0.0 mm 0.00 in0.0 mm 0.00 in0.0 mm
05:15 AM 23.0°F-5.0°C 16.6°F-8.6°C 76% 2.9 mph NE4.7 kmh NE 6.7 mph10.8 kmh 30.02 in1016.6 mb 0.00 in0.0 mm 0.00 in0.0 mm 0.00 in0.0 mm
05:30 AM 22.8°F-5.1°C 17.0°F-8.3°C 78% 1.9 mph NE3.1 kmh NE 3.9 mph6.3 kmh 30.01 in1016.3 mb 0.00 in0.0 mm 0.00 in0.0 mm 0.00 in0.0 mm
05:45 AM 22.6°F-5.2°C 17.1°F-8.3°C 79% 1.8 mph NE2.9 kmh NE 4.8 mph7.7 kmh 30.01 in1016.3 mb 0.00 in0.0 mm 0.00 in0.0 mm 0.00 in0.0 mm
06:00 AM 22.5°F-5.3°C 17.6°F-8.0°C 81% 1.1 mph NE1.8 kmh NE 3.9 mph6.3 kmh 30.01 in1016.3 mb 0.00 in0.0 mm 0.00 in0.0 mm 0.00 in0.0 mm
06:15 AM 22.5°F-5.3°C 17.8°F-7.9°C 82% 1.2 mph NE1.9 kmh NE 2.8 mph4.5 kmh 30.01 in1016.3 mb 0.00 in0.0 mm 0.00 in0.0 mm 0.00 in0.0 mm
06:30 AM 22.5°F-5.3°C 18.4°F-7.6°C 84% 0.4 mph NE0.6 kmh NE 2.0 mph3.2 kmh 30.00 in1015.9 mb 0.00 in0.0 mm 0.00 in0.0 mm 0.00 in0.0 mm
06:45 AM 22.3°F-5.4°C 18.5°F-7.5°C 85% 0.4 mph NE0.6 kmh NE 2.8 mph4.5 kmh 30.00 in1015.9 mb 0.00 in0.0 mm 0.00 in0.0 mm 0.00 in0.0 mm
07:00 AM 22.3°F-5.4°C 18.5°F-7.5°C 85% 0.4 mph SW0.6 kmh SW 2.8 mph4.5 kmh 29.99 in1015.6 mb 0.00 in0.0 mm 0.00 in0.0 mm 0.00 in0.0 mm
07:15 AM 22.3°F-5.4°C 19.0°F-7.2°C 87% 0.1 mph SW0.2 kmh SW 2.8 mph4.5 kmh 30.00 in1015.9 mb 0.00 in0.0 mm 0.00 in0.0 mm 0.00 in0.0 mm
07:30 AM 22.3°F-5.4°C 19.3°F-7.1°C 88% 0.5 mph SW0.8 kmh SW 3.9 mph6.3 kmh 29.99 in1015.6 mb 0.00 in0.0 mm 0.00 in0.0 mm 0.00 in0.0 mm
07:45 AM 22.3°F-5.4°C 19.3°F-7.1°C 88% 0.3 mph SW0.5 kmh SW 2.0 mph3.2 kmh 30.00 in1015.9 mb 0.00 in0.0 mm 0.00 in0.0 mm 0.00 in0.0 mm
08:00 AM 22.3°F-5.4°C 19.8°F-6.8°C 90% 0.1 mph NE0.2 kmh NE 2.0 mph3.2 kmh 29.99 in1015.6 mb 0.00 in0.0 mm 0.00 in0.0 mm 0.00 in0.0 mm
08:15 AM 22.5°F-5.3°C 20.0°F-6.7°C 90% 0.2 mph W0.3 kmh W 2.8 mph4.5 kmh 29.99 in1015.6 mb 0.00 in0.0 mm 0.00 in0.0 mm 0.00 in0.0 mm
08:30 AM 22.5°F-5.3°C 20.3°F-6.5°C 91% 0.3 mph WNW0.5 kmh WNW 2.0 mph3.2 kmh 29.99 in1015.6 mb 0.00 in0.0 mm 0.00 in0.0 mm 0.00 in0.0 mm
08:45 AM 22.6°F-5.2°C 20.4°F-6.4°C 91% 0.1 mph W0.2 kmh W 2.8 mph4.5 kmh 29.99 in1015.6 mb 0.00 in0.0 mm 0.00 in0.0 mm 0.00 in0.0 mm
09:00 AM 22.8°F-5.1°C 21.1°F-6.1°C 93% Calm Calm -- 29.99 in1015.6 mb 0.00 in0.0 mm 0.00 in0.0 mm 0.00 in0.0 mm
09:15 AM 23.2°F-4.9°C 21.5°F-5.8°C 93% Calm Calm -- 30.00 in1015.9 mb 0.00 in0.0 mm 0.00 in0.0 mm 0.00 in0.0 mm
09:30 AM 23.4°F-4.8°C 21.7°F-5.7°C 93% Calm Calm -- 29.99 in1015.6 mb 0.00 in0.0 mm 0.00 in0.0 mm 0.00 in0.0 mm
09:45 AM 23.5°F-4.7°C 21.8°F-5.7°C 93% Calm Calm -- 30.00 in1015.9 mb 0.00 in0.0 mm 0.00 in0.0 mm 0.00 in0.0 mm
10:00 AM 23.9°F-4.5°C 22.5°F-5.3°C 94% Calm Calm -- 30.00 in1015.9 mb 0.00 in0.0 mm 0.00 in0.0 mm 0.00 in0.0 mm
10:15 AM 24.3°F-4.3°C 22.8°F-5.1°C 94% Calm Calm -- 29.99 in1015.6 mb 0.00 in0.0 mm 0.00 in0.0 mm 0.00 in0.0 mm
10:30 AM 24.4°F-4.2°C 23.0°F-5.0°C 94% Calm Calm -- 29.99 in1015.6 mb 0.00 in0.0 mm 0.00 in0.0 mm 0.00 in0.0 mm
10:45 AM 24.6°F-4.1°C 23.2°F-4.9°C 94% Calm Calm -- 29.98 in1015.2 mb 0.00 in0.0 mm 0.00 in0.0 mm 0.00 in0.0 mm
11:00 AM 25.0°F-3.9°C 23.5°F-4.7°C 94% Calm Calm -- 29.98 in1015.2 mb 0.00 in0.0 mm 0.00 in0.0 mm 0.00 in0.0 mm
11:15 AM 25.3°F-3.7°C 23.6°F-4.7°C 93% Calm Calm -- 29.97 in1014.9 mb 0.00 in0.0 mm 0.00 in0.0 mm 0.00 in0.0 mm
11:30 AM 25.3°F-3.7°C 23.6°F-4.7°C 93% Calm Calm -- 29.96 in1014.6 mb 0.00 in0.0 mm 0.00 in0.0 mm 0.00 in0.0 mm
11:45 AM 25.5°F-3.6°C 23.3°F-4.8°C 91% 0.1 mph NNE0.2 kmh NNE 2.8 mph4.5 kmh 29.96 in1014.6 mb 0.00 in0.0 mm 0.00 in0.0 mm 0.00 in0.0 mm
12:00 PM 25.5°F-3.6°C 23.3°F-4.8°C 91% 1.3 mph ENE2.1 kmh ENE 4.8 mph7.7 kmh 29.95 in1014.2 mb 0.00 in0.0 mm 0.00 in0.0 mm 0.00 in0.0 mm
12:15 PM 25.9°F-3.4°C 23.6°F-4.7°C 91% 1.6 mph NE2.6 kmh NE 5.6 mph9.0 kmh 29.96 in1014.6 mb 0.00 in0.0 mm 0.00 in0.0 mm 0.00 in0.0 mm
12:30 PM 25.9°F-3.4°C 23.4°F-4.8°C 90% 1.5 mph E2.4 kmh E 4.8 mph7.7 kmh 29.95 in1014.2 mb 0.00 in0.0 mm 0.00 in0.0 mm 0.00 in0.0 mm
12:45 PM 25.9°F-3.4°C 23.4°F-4.8°C 90% 1.5 mph NE2.4 kmh NE 4.8 mph7.7 kmh 29.95 in1014.2 mb 0.00 in0.0 mm 0.00 in0.0 mm 0.00 in0.0 mm
01:00 PM 26.1°F-3.3°C 23.6°F-4.7°C 90% 0.5 mph NE0.8 kmh NE 3.9 mph6.3 kmh 29.95 in1014.2 mb 0.00 in0.0 mm 0.00 in0.0 mm 0.00 in0.0 mm
01:15 PM 26.4°F-3.1°C 23.9°F-4.5°C 90% 0.7 mph ENE1.1 kmh ENE 4.8 mph7.7 kmh 29.95 in1014.2 mb 0.00 in0.0 mm 0.00 in0.0 mm 0.00 in0.0 mm
01:30 PM 26.4°F-3.1°C 23.4°F-4.8°C 88% 1.7 mph ENE2.7 kmh ENE 7.5 mph12.1 kmh 29.95 in1014.2 mb 0.00 in0.0 mm 0.00 in0.0 mm 0.00 in0.0 mm
01:45 PM 26.4°F-3.1°C 23.1°F-4.9°C 87% 1.2 mph NE1.9 kmh NE 3.9 mph6.3 kmh 29.95 in1014.2 mb 0.00 in0.0 mm 0.00 in0.0 mm 0.00 in0.0 mm
02:00 PM 26.4°F-3.1°C 23.1°F-4.9°C 87% 2.1 mph NE3.4 kmh NE 7.5 mph12.1 kmh 29.95 in1014.2 mb 0.00 in0.0 mm 0.00 in0.0 mm 0.00 in0.0 mm
02:15 PM 26.2°F-3.2°C 22.4°F-5.3°C 85% 1.2 mph NNW1.9 kmh NNW 7.5 mph12.1 kmh 29.96 in1014.6 mb 0.00 in0.0 mm 0.00 in0.0 mm 0.00 in0.0 mm
02:30 PM 26.2°F-3.2°C 22.4°F-5.3°C 85% 1.7 mph NE2.7 kmh NE 7.5 mph12.1 kmh 29.96 in1014.6 mb 0.00 in0.0 mm 0.00 in0.0 mm 0.00 in0.0 mm
02:45 PM 26.2°F-3.2°C 22.1°F-5.5°C 84% 1.4 mph NE2.3 kmh NE 4.8 mph7.7 kmh 29.97 in1014.9 mb 0.00 in0.0 mm 0.00 in0.0 mm 0.00 in0.0 mm
03:00 PM 26.2°F-3.2°C 21.5°F-5.8°C 82% 2.1 mph NE3.4 kmh NE 9.5 mph15.3 kmh 29.98 in1015.2 mb 0.00 in0.0 mm 0.00 in0.0 mm 0.00 in0.0 mm
03:15 PM 26.1°F-3.3°C 21.3°F-5.9°C 82% 1.5 mph NE2.4 kmh NE 7.5 mph12.1 kmh 29.99 in1015.6 mb 0.00 in0.0 mm 0.00 in0.0 mm 0.00 in0.0 mm
03:30 PM 25.7°F-3.5°C 21.0°F-6.1°C 82% 1.0 mph NNE1.6 kmh NNE 4.8 mph7.7 kmh 29.99 in1015.6 mb 0.00 in0.0 mm 0.00 in0.0 mm 0.00 in0.0 mm
03:45 PM 25.7°F-3.5°C 21.0°F-6.1°C 82% 1.4 mph NE2.3 kmh NE 7.5 mph12.1 kmh 30.00 in1015.9 mb 0.00 in0.0 mm 0.00 in0.0 mm 0.00 in0.0 mm
04:00 PM 25.5°F-3.6°C 20.8°F-6.2°C 82% 1.7 mph NNE2.7 kmh NNE 6.7 mph10.8 kmh 30.01 in1016.3 mb 0.00 in0.0 mm 0.00 in0.0 mm 0.00 in0.0 mm
04:15 PM 25.5°F-3.6°C 21.4°F-5.9°C 84% 1.9 mph NNE3.1 kmh NNE 7.5 mph12.1 kmh 30.02 in1016.6 mb 0.00 in0.0 mm 0.00 in0.0 mm 0.00 in0.0 mm
04:30 PM 25.3°F-3.7°C 21.2°F-6.0°C 84% 2.5 mph NE4.0 kmh NE 8.7 mph14.0 kmh 30.04 in1017.3 mb 0.00 in0.0 mm 0.00 in0.0 mm 0.00 in0.0 mm
04:45 PM 25.2°F-3.8°C 21.0°F-6.1°C 84% 2.4 mph NE3.9 kmh NE 9.5 mph15.3 kmh 30.04 in1017.3 mb 0.00 in0.0 mm 0.00 in0.0 mm 0.00 in0.0 mm
05:00 PM 24.8°F-4.0°C 20.1°F-6.6°C 82% 1.7 mph NE2.7 kmh NE 7.5 mph12.1 kmh 30.06 in1017.9 mb 0.00 in0.0 mm 0.00 in0.0 mm 0.00 in0.0 mm
05:15 PM 24.6°F-4.1°C 19.9°F-6.7°C 82% 1.7 mph NNE2.7 kmh NNE 6.7 mph10.8 kmh 30.06 in1017.9 mb 0.00 in0.0 mm 0.00 in0.0 mm 0.00 in0.0 mm
05:30 PM 24.4°F-4.2°C 19.8°F-6.8°C 82% 1.6 mph NE2.6 kmh NE 6.7 mph10.8 kmh 30.07 in1018.3 mb 0.00 in0.0 mm 0.00 in0.0 mm 0.00 in0.0 mm
05:45 PM 24.3°F-4.3°C 19.6°F-6.9°C 82% 1.8 mph N2.9 kmh N 8.7 mph14.0 kmh 30.07 in1018.3 mb 0.00 in0.0 mm 0.00 in0.0 mm 0.00 in0.0 mm
06:00 PM 23.9°F-4.5°C 19.2°F-7.1°C 82% 1.2 mph NE1.9 kmh NE 5.6 mph9.0 kmh 30.08 in1018.6 mb 0.00 in0.0 mm 0.00 in0.0 mm 0.00 in0.0 mm
06:15 PM 23.2°F-4.9°C 18.5°F-7.5°C 82% 1.1 mph NNE1.8 kmh NNE 4.8 mph7.7 kmh 30.09 in1019.0 mb 0.00 in0.0 mm 0.00 in0.0 mm 0.00 in0.0 mm
06:30 PM 22.3°F-5.4°C 17.4°F-8.1°C 81% 0.9 mph NE1.4 kmh NE 5.6 mph9.0 kmh 30.10 in1019.3 mb 0.00 in0.0 mm 0.00 in0.0 mm 0.00 in0.0 mm
06:45 PM 21.4°F-5.9°C 16.5°F-8.6°C 81% 0.9 mph NNE1.4 kmh NNE 4.8 mph7.7 kmh 30.11 in1019.6 mb 0.00 in0.0 mm 0.00 in0.0 mm 0.00 in0.0 mm
07:00 PM 20.3°F-6.5°C 15.4°F-9.2°C 81% 0.3 mph NE0.5 kmh NE 2.8 mph4.5 kmh 30.11 in1019.6 mb 0.00 in0.0 mm 0.00 in0.0 mm 0.00 in0.0 mm
07:15 PM 19.4°F-7.0°C 14.9°F-9.5°C 82% 0.3 mph NE0.5 kmh NE 3.9 mph6.3 kmh 30.12 in1020.0 mb 0.00 in0.0 mm 0.00 in0.0 mm 0.00 in0.0 mm
07:30 PM 18.7°F-7.4°C 14.1°F-9.9°C 82% 0.3 mph NE0.5 kmh NE 2.8 mph4.5 kmh 30.12 in1020.0 mb 0.00 in0.0 mm 0.00 in0.0 mm 0.00 in0.0 mm
07:45 PM 17.8°F-7.9°C 13.3°F-10.4°C 82% 0.4 mph NE0.6 kmh NE 2.8 mph4.5 kmh 30.13 in1020.3 mb 0.00 in0.0 mm 0.00 in0.0 mm 0.00 in0.0 mm
08:00 PM 17.2°F-8.2°C 13.3°F-10.4°C 84% 0.7 mph NE1.1 kmh NE 2.8 mph4.5 kmh 30.13 in1020.3 mb 0.00 in0.0 mm 0.00 in0.0 mm 0.00 in0.0 mm
08:15 PM 16.5°F-8.6°C 12.6°F-10.8°C 84% Calm Calm 2.0 mph3.2 kmh 30.14 in1020.7 mb 0.00 in0.0 mm 0.00 in0.0 mm 0.00 in0.0 mm
08:30 PM 15.8°F-9.0°C 11.9°F-11.2°C 84% Calm Calm 2.0 mph3.2 kmh 30.15 in1021.0 mb 0.00 in0.0 mm 0.00 in0.0 mm 0.00 in0.0 mm
08:45 PM 15.3°F-9.3°C 11.6°F-11.3°C 85% 0.3 mph NE0.5 kmh NE 2.8 mph4.5 kmh 30.15 in1021.0 mb 0.00 in0.0 mm 0.00 in0.0 mm 0.00 in0.0 mm
09:00 PM 15.3°F-9.3°C 11.6°F-11.3°C 85% Calm Calm 0.8 mph1.3 kmh 30.16 in1021.3 mb 0.00 in0.0 mm 0.00 in0.0 mm 0.00 in0.0 mm
09:15 PM 15.3°F-9.3°C 12.1°F-11.1°C 87% 0.1 mph WNW0.2 kmh WNW 2.0 mph3.2 kmh 30.17 in1021.7 mb 0.00 in0.0 mm 0.00 in0.0 mm 0.00 in0.0 mm
09:30 PM 15.4°F-9.2°C 12.6°F-10.8°C 88% 0.3 mph NE0.5 kmh NE 2.8 mph4.5 kmh 30.16 in1021.3 mb 0.00 in0.0 mm 0.00 in0.0 mm 0.00 in0.0 mm
09:45 PM 15.4°F-9.2°C 12.6°F-10.8°C 88% Calm Calm 2.0 mph3.2 kmh 30.17 in1021.7 mb 0.00 in0.0 mm 0.00 in0.0 mm 0.00 in0.0 mm
10:00 PM 15.3°F-9.3°C 12.9°F-10.6°C 90% 0.5 mph NE0.8 kmh NE 2.8 mph4.5 kmh 30.17 in1021.7 mb 0.00 in0.0 mm 0.00 in0.0 mm 0.00 in0.0 mm
10:15 PM 15.3°F-9.3°C 12.9°F-10.6°C 90% 0.5 mph NNE0.8 kmh NNE 3.9 mph6.3 kmh 30.18 in1022.0 mb 0.00 in0.0 mm 0.00 in0.0 mm 0.00 in0.0 mm
10:30 PM 14.9°F-9.5°C 12.6°F-10.8°C 90% 0.1 mph NE0.2 kmh NE 2.0 mph3.2 kmh 30.18 in1022.0 mb 0.00 in0.0 mm 0.00 in0.0 mm 0.00 in0.0 mm
10:45 PM 14.4°F-9.8°C 12.0°F-11.1°C 90% Calm Calm 0.8 mph1.3 kmh 30.18 in1022.0 mb 0.00 in0.0 mm 0.00 in0.0 mm 0.00 in0.0 mm
11:00 PM 14.0°F-10.0°C 11.7°F-11.3°C 90% Calm Calm 0.8 mph1.3 kmh 30.18 in1022.0 mb 0.00 in0.0 mm 0.00 in0.0 mm 0.00 in0.0 mm
11:15 PM 14.2°F-9.9°C 12.1°F-11.1°C 91% 0.2 mph NW0.3 kmh NW 2.0 mph3.2 kmh 30.18 in1022.0 mb 0.00 in0.0 mm 0.00 in0.0 mm 0.00 in0.0 mm
11:30 PM 14.5°F-9.7°C 12.4°F-10.9°C 91% Calm Calm -- 30.19 in1022.4 mb 0.00 in0.0 mm 0.00 in0.0 mm 0.00 in0.0 mm
11:45 PM 14.7°F-9.6°C 13.1°F-10.5°C 93% 0.1 mph NE0.2 kmh NE 2.8 mph4.5 kmh 30.19 in1022.4 mb 0.00 in0.0 mm 0.00 in0.0 mm 0.00 in0.0 mm